createdAt,value
2023-04-18T00:00:38.549Z,582.00
2023-04-18T00:01:38.569Z,582.00
2023-04-18T00:02:38.809Z,582.00
2023-04-18T00:03:38.816Z,581.00
2023-04-18T00:04:38.699Z,582.00
2023-04-18T00:05:38.546Z,580.00
2023-04-18T00:06:38.540Z,580.00
2023-04-18T00:07:38.535Z,582.00
2023-04-18T00:08:38.528Z,581.00
2023-04-18T00:09:38.655Z,582.00
2023-04-18T00:10:38.558Z,583.00
2023-04-18T00:11:38.540Z,583.00
2023-04-18T00:12:38.548Z,576.00
2023-04-18T00:13:38.593Z,578.00
2023-04-18T00:14:38.537Z,579.00
2023-04-18T00:15:38.581Z,576.00
2023-04-18T00:16:38.583Z,579.00
2023-04-18T00:17:38.622Z,583.00
2023-04-18T00:18:38.534Z,583.00
2023-04-18T00:19:38.567Z,576.00
2023-04-18T00:20:38.619Z,575.00
2023-04-18T00:21:38.564Z,573.00
2023-04-18T00:22:38.572Z,575.00
2023-04-18T00:23:38.613Z,573.00
2023-04-18T00:24:38.611Z,579.00
2023-04-18T00:25:38.617Z,579.00
2023-04-18T00:26:38.622Z,575.00
2023-04-18T00:27:38.633Z,577.00
2023-04-18T00:28:38.621Z,581.00
2023-04-18T00:29:38.655Z,572.00
2023-04-18T00:30:38.691Z,572.00
2023-04-18T00:31:38.651Z,576.00
2023-04-18T00:32:38.806Z,576.00
2023-04-18T00:33:38.680Z,573.00
2023-04-18T00:34:38.700Z,573.00
2023-04-18T00:35:38.715Z,574.00
2023-04-18T00:36:38.709Z,572.00
2023-04-18T00:37:38.725Z,572.00
2023-04-18T00:38:38.747Z,569.00
2023-04-18T00:39:38.743Z,574.00
2023-04-18T00:40:38.851Z,573.00
2023-04-18T00:41:38.803Z,575.00
2023-04-18T00:42:38.817Z,571.00
2023-04-18T00:43:38.810Z,572.00
2023-04-18T00:44:38.789Z,572.00
2023-04-18T00:45:38.818Z,567.00
2023-04-18T00:46:38.894Z,574.00
2023-04-18T00:47:38.917Z,573.00
2023-04-18T00:48:38.842Z,570.00
2023-04-18T00:49:38.835Z,572.00
2023-04-18T00:50:38.842Z,571.00
2023-04-18T00:51:38.875Z,571.00
2023-04-18T00:52:38.873Z,570.00
2023-04-18T00:53:38.897Z,570.00
2023-04-18T00:54:38.950Z,570.00
2023-04-18T00:55:38.915Z,570.00
2023-04-18T00:56:38.915Z,570.00
2023-04-18T00:57:38.960Z,570.00
2023-04-18T00:58:38.945Z,566.00
2023-04-18T00:59:38.943Z,571.00
2023-04-18T01:00:39.003Z,571.00
2023-04-18T01:01:39.100Z,573.00
2023-04-18T01:02:39.088Z,574.00
2023-04-18T01:03:39.132Z,568.00
2023-04-18T01:04:38.977Z,568.00
2023-04-18T01:05:38.960Z,566.00
2023-04-18T01:06:38.983Z,571.00
2023-04-18T01:07:38.973Z,566.00
2023-04-18T01:08:38.991Z,563.00
2023-04-18T01:09:38.985Z,566.00
2023-04-18T01:10:38.975Z,564.00
2023-04-18T01:11:38.975Z,568.00
2023-04-18T01:12:38.999Z,566.00
2023-04-18T01:13:39.238Z,568.00
2023-04-18T01:14:39.026Z,567.00
2023-04-18T01:15:39.083Z,569.00
2023-04-18T01:16:39.018Z,567.00
2023-04-18T01:17:39.014Z,562.00
2023-04-18T01:18:39.001Z,565.00
2023-04-18T01:19:39.093Z,559.00
2023-04-18T01:20:39.065Z,567.00
2023-04-18T01:21:39.006Z,569.00
2023-04-18T01:22:39.036Z,567.00
2023-04-18T01:23:39.041Z,565.00
2023-04-18T01:24:39.013Z,562.00
2023-04-18T01:25:39.013Z,567.00
2023-04-18T01:26:39.060Z,563.00
2023-04-18T01:27:39.017Z,562.00
2023-04-18T01:28:39.024Z,566.00
2023-04-18T01:29:39.169Z,560.00
2023-04-18T01:30:39.017Z,565.00
2023-04-18T01:31:39.211Z,563.00
2023-04-18T01:32:39.137Z,565.00
2023-04-18T01:33:39.024Z,565.00
2023-04-18T01:34:39.049Z,559.00
2023-04-18T01:35:39.054Z,563.00
2023-04-18T01:36:39.135Z,560.00
2023-04-18T01:37:39.042Z,562.00
2023-04-18T01:38:39.010Z,562.00
2023-04-18T01:39:38.995Z,560.00
2023-04-18T01:40:39.053Z,561.00
2023-04-18T01:41:39.023Z,559.00
2023-04-18T01:42:38.988Z,561.00
2023-04-18T01:43:39.009Z,563.00
2023-04-18T01:44:39.026Z,563.00
2023-04-18T01:45:39.057Z,562.00
2023-04-18T01:46:39.047Z,561.00
2023-04-18T01:47:39.030Z,562.00
2023-04-18T01:48:38.982Z,557.00
2023-04-18T01:49:38.964Z,559.00
2023-04-18T01:50:38.984Z,559.00
2023-04-18T01:51:38.999Z,564.00
2023-04-18T01:52:38.973Z,560.00
2023-04-18T01:53:38.990Z,559.00
2023-04-18T01:54:39.049Z,562.00
2023-04-18T01:55:39.061Z,558.00
2023-04-18T01:56:39.049Z,560.00
2023-04-18T01:57:39.088Z,553.00
2023-04-18T01:58:39.130Z,560.00
2023-04-18T01:59:39.166Z,557.00
2023-04-18T02:00:39.313Z,559.00
2023-04-18T02:01:39.294Z,562.00
2023-04-18T02:02:39.439Z,558.00
2023-04-18T02:03:39.569Z,561.00
2023-04-18T02:04:39.420Z,558.00
2023-04-18T02:05:39.528Z,558.00
2023-04-18T02:06:39.570Z,558.00
2023-04-18T02:07:39.445Z,557.00
2023-04-18T02:08:39.452Z,558.00
2023-04-18T02:09:39.444Z,559.00
2023-04-18T02:10:39.454Z,560.00
2023-04-18T02:11:39.449Z,557.00
2023-04-18T02:12:39.439Z,560.00
2023-04-18T02:13:39.418Z,561.00
2023-04-18T02:14:39.434Z,554.00
2023-04-18T02:15:39.428Z,556.00
2023-04-18T02:16:39.435Z,559.00
2023-04-18T02:17:39.442Z,558.00
2023-04-18T02:18:39.418Z,563.00
2023-04-18T02:19:39.412Z,553.00
2023-04-18T02:20:39.431Z,559.00
2023-04-18T02:21:39.403Z,558.00
2023-04-18T02:22:39.435Z,556.00
2023-04-18T02:23:39.410Z,558.00
2023-04-18T02:24:39.396Z,557.00
2023-04-18T02:25:39.377Z,558.00
2023-04-18T02:26:39.375Z,559.00
2023-04-18T02:27:39.366Z,555.00
2023-04-18T02:28:39.377Z,555.00
2023-04-18T02:29:39.386Z,553.00
2023-04-18T02:30:39.362Z,555.00
2023-04-18T02:31:39.444Z,555.00
2023-04-18T02:32:39.397Z,554.00
2023-04-18T02:33:39.475Z,558.00
2023-04-18T02:34:39.430Z,554.00
2023-04-18T02:35:39.366Z,556.00
2023-04-18T02:36:39.358Z,556.00
2023-04-18T02:37:39.347Z,554.00
2023-04-18T02:38:39.360Z,555.00
2023-04-18T02:39:39.351Z,557.00
2023-04-18T02:40:39.352Z,549.00
2023-04-18T02:41:39.364Z,553.00
2023-04-18T02:42:39.340Z,558.00
2023-04-18T02:43:39.400Z,555.00
2023-04-18T02:44:39.326Z,559.00
2023-04-18T02:45:39.373Z,557.00
2023-04-18T02:46:39.341Z,554.00
2023-04-18T02:47:51.143Z,555.00
2023-04-18T02:48:40.365Z,555.00
2023-04-18T02:49:39.365Z,556.00
2023-04-18T02:50:39.345Z,557.00
2023-04-18T02:51:39.304Z,554.00
2023-04-18T02:52:39.314Z,557.00
2023-04-18T02:53:39.295Z,554.00
2023-04-18T02:54:39.265Z,553.00
2023-04-18T02:55:39.271Z,556.00
2023-04-18T02:56:39.274Z,550.00
2023-04-18T02:57:39.251Z,553.00
2023-04-18T02:58:39.273Z,555.00
2023-04-18T02:59:39.257Z,552.00
2023-04-18T03:00:39.341Z,551.00
2023-04-18T03:01:39.289Z,553.00
2023-04-18T03:02:39.321Z,552.00
2023-04-18T03:03:39.260Z,553.00
2023-04-18T03:04:39.250Z,553.00
2023-04-18T03:05:39.201Z,553.00
2023-04-18T03:06:39.231Z,553.00
2023-04-18T03:07:39.181Z,557.00
2023-04-18T03:08:39.209Z,551.00
2023-04-18T03:09:39.177Z,550.00
2023-04-18T03:10:39.210Z,556.00
2023-04-18T03:11:39.162Z,550.00
2023-04-18T03:12:39.138Z,550.00
2023-04-18T03:13:39.163Z,554.00
2023-04-18T03:14:39.261Z,552.00
2023-04-18T03:15:39.267Z,548.00
2023-04-18T03:16:39.359Z,550.00
2023-04-18T03:17:39.361Z,552.00
2023-04-18T03:18:39.345Z,550.00
2023-04-18T03:19:39.419Z,549.00
2023-04-18T03:20:39.432Z,554.00
2023-04-18T03:21:39.505Z,549.00
2023-04-18T03:22:39.523Z,549.00
2023-04-18T03:23:39.597Z,548.00
2023-04-18T03:24:39.672Z,546.00
2023-04-18T03:25:39.677Z,547.00
2023-04-18T03:26:39.710Z,548.00
2023-04-18T03:27:39.790Z,552.00
2023-04-18T03:28:39.787Z,555.00
2023-04-18T03:29:39.760Z,549.00
2023-04-18T03:30:39.821Z,548.00
2023-04-18T03:31:39.863Z,548.00
2023-04-18T03:32:39.864Z,549.00
2023-04-18T03:33:39.834Z,549.00
2023-04-18T03:34:39.850Z,551.00
2023-04-18T03:35:39.882Z,546.00
2023-04-18T03:36:39.879Z,553.00
2023-04-18T03:37:39.896Z,548.00
2023-04-18T03:38:39.876Z,543.00
2023-04-18T03:39:39.934Z,555.00
2023-04-18T03:40:39.956Z,547.00
2023-04-18T03:41:39.975Z,544.00
2023-04-18T03:42:39.989Z,545.00
2023-04-18T03:43:40.010Z,550.00
2023-04-18T03:44:40.009Z,547.00
2023-04-18T03:45:40.046Z,547.00
2023-04-18T03:46:40.114Z,545.00
2023-04-18T03:47:40.121Z,548.00
2023-04-18T03:48:40.066Z,541.00
2023-04-18T03:49:40.116Z,545.00
2023-04-18T03:50:40.100Z,540.00
2023-04-18T03:51:40.123Z,545.00
2023-04-18T03:52:40.210Z,547.00
2023-04-18T03:53:40.139Z,542.00
2023-04-18T03:54:40.240Z,550.00
2023-04-18T03:55:40.239Z,547.00
2023-04-18T03:56:40.271Z,546.00
2023-04-18T03:57:41.376Z,549.00
2023-04-18T03:58:40.300Z,549.00
2023-04-18T03:59:40.346Z,543.00
2023-04-18T04:00:40.383Z,550.00
2023-04-18T04:01:40.428Z,544.00
2023-04-18T04:02:40.543Z,547.00
2023-04-18T04:03:40.555Z,547.00
2023-04-18T04:04:40.530Z,550.00
2023-04-18T04:05:40.432Z,543.00
2023-04-18T04:06:40.445Z,548.00
2023-04-18T04:07:40.566Z,544.00
2023-04-18T04:08:40.478Z,543.00
2023-04-18T04:09:40.575Z,546.00
2023-04-18T04:10:40.537Z,545.00
2023-04-18T04:11:40.584Z,538.00
2023-04-18T04:12:40.603Z,542.00
2023-04-18T04:13:40.643Z,544.00
2023-04-18T04:14:40.674Z,548.00
2023-04-18T04:15:40.707Z,545.00
2023-04-18T04:16:40.769Z,543.00
2023-04-18T04:17:40.775Z,542.00
2023-04-18T04:18:40.817Z,542.00
2023-04-18T04:19:40.834Z,543.00
2023-04-18T04:20:40.891Z,542.00
2023-04-18T04:21:40.964Z,547.00
2023-04-18T04:22:41.057Z,542.00
2023-04-18T04:23:41.116Z,540.00
2023-04-18T04:24:41.142Z,543.00
2023-04-18T04:25:41.233Z,543.00
2023-04-18T04:26:41.280Z,537.00
2023-04-18T04:27:41.337Z,544.00
2023-04-18T04:28:41.407Z,539.00
2023-04-18T04:29:41.484Z,539.00
2023-04-18T04:30:41.555Z,545.00
2023-04-18T04:31:41.626Z,537.00
2023-04-18T04:32:41.641Z,538.00
2023-04-18T04:33:41.674Z,542.00
2023-04-18T04:34:41.705Z,543.00
2023-04-18T04:35:41.684Z,540.00
2023-04-18T04:36:41.718Z,543.00
2023-04-18T04:37:41.748Z,542.00
2023-04-18T04:38:41.732Z,538.00
2023-04-18T04:39:41.767Z,540.00
2023-04-18T04:40:41.830Z,541.00
2023-04-18T04:41:41.806Z,542.00
2023-04-18T04:42:41.886Z,541.00
2023-04-18T04:43:41.886Z,541.00
2023-04-18T04:44:41.933Z,544.00
2023-04-18T04:45:42.047Z,540.00
2023-04-18T04:46:41.970Z,541.00
2023-04-18T04:47:42.092Z,539.00
2023-04-18T04:48:42.063Z,539.00
2023-04-18T04:49:42.127Z,540.00
2023-04-18T04:50:42.156Z,541.00
2023-04-18T04:51:42.176Z,537.00
2023-04-18T04:52:42.211Z,539.00
2023-04-18T04:53:42.222Z,539.00
2023-04-18T04:54:42.307Z,535.00
2023-04-18T04:55:42.347Z,534.00
2023-04-18T04:56:42.346Z,533.00
2023-04-18T04:57:42.416Z,536.00
2023-04-18T04:58:42.426Z,540.00
2023-04-18T04:59:42.478Z,531.00
2023-04-18T05:00:42.520Z,536.00
2023-04-18T05:01:42.557Z,536.00
2023-04-18T05:02:42.752Z,535.00
2023-04-18T05:03:42.935Z,532.00
2023-04-18T05:04:42.742Z,530.00
2023-04-18T05:05:42.735Z,536.00
2023-04-18T05:06:42.739Z,535.00
2023-04-18T05:07:42.833Z,534.00
2023-04-18T05:08:42.873Z,534.00
2023-04-18T05:09:42.939Z,534.00
2023-04-18T05:10:43.046Z,534.00
2023-04-18T05:11:43.062Z,537.00
2023-04-18T05:12:43.103Z,531.00
2023-04-18T05:13:43.207Z,536.00
2023-04-18T05:14:43.222Z,533.00
2023-04-18T05:15:43.318Z,533.00
2023-04-18T05:16:43.446Z,529.00
2023-04-18T05:17:43.563Z,531.00
2023-04-18T05:18:43.634Z,535.00
2023-04-18T05:19:43.534Z,527.00
2023-04-18T05:20:43.673Z,529.00
2023-04-18T05:21:43.677Z,528.00
2023-04-18T05:22:44.009Z,530.00
2023-04-18T05:23:44.001Z,532.00
2023-04-18T05:24:43.815Z,530.00
2023-04-18T05:25:43.854Z,526.00
2023-04-18T05:26:43.949Z,529.00
2023-04-18T05:27:43.971Z,532.00
2023-04-18T05:28:44.690Z,527.00
2023-04-18T05:29:44.149Z,524.00
2023-04-18T05:30:44.216Z,529.00
2023-04-18T05:31:44.231Z,527.00
2023-04-18T05:32:44.284Z,529.00
2023-04-18T05:33:44.315Z,520.00
2023-04-18T05:34:44.771Z,515.00
2023-04-18T05:35:44.616Z,512.00
2023-04-18T05:36:45.337Z,522.00
2023-04-18T05:37:44.488Z,523.00
2023-04-18T05:38:44.433Z,528.00
2023-04-18T05:39:45.021Z,537.00
2023-04-18T05:40:44.663Z,533.00
2023-04-18T05:41:44.687Z,537.00
2023-04-18T05:42:45.516Z,548.00
2023-04-18T05:43:51.154Z,546.00
2023-04-18T05:44:46.074Z,547.00
2023-04-18T05:45:44.782Z,550.00
2023-04-18T05:46:44.729Z,555.00
2023-04-18T05:47:44.831Z,570.00
2023-04-18T05:48:44.721Z,586.00
2023-04-18T05:49:45.493Z,585.00
2023-04-18T05:50:45.217Z,580.00
2023-04-18T05:51:45.505Z,580.00
2023-04-18T05:52:44.698Z,584.00
2023-04-18T05:53:45.002Z,577.00
2023-04-18T05:54:44.699Z,585.00
2023-04-18T05:55:44.705Z,586.00
2023-04-18T05:56:44.762Z,577.00
2023-04-18T05:57:44.811Z,584.00
2023-04-18T05:58:44.777Z,583.00
2023-04-18T05:59:44.784Z,584.00
2023-04-18T06:00:44.801Z,588.00
2023-04-18T06:01:44.835Z,578.00
2023-04-18T06:02:44.974Z,584.00
2023-04-18T06:03:45.219Z,579.00
2023-04-18T06:04:45.372Z,575.00
2023-04-18T06:05:45.116Z,575.00
2023-04-18T06:06:45.235Z,574.00
2023-04-18T06:07:45.060Z,573.00
2023-04-18T06:08:45.521Z,573.00
2023-04-18T06:09:45.118Z,563.00
2023-04-18T06:10:45.133Z,566.00
2023-04-18T06:11:45.198Z,808.00
2023-04-18T06:12:45.223Z,649.00
2023-04-18T06:13:45.262Z,606.00
2023-04-18T06:14:45.316Z,592.00
2023-04-18T06:15:45.375Z,580.00
2023-04-18T06:16:45.356Z,577.00
2023-04-18T06:17:45.428Z,556.00
2023-04-18T06:18:45.409Z,561.00
2023-04-18T06:19:45.444Z,555.00
2023-04-18T06:20:45.443Z,551.00
2023-04-18T06:21:45.465Z,556.00
2023-04-18T06:22:45.506Z,558.00
2023-04-18T06:23:45.555Z,555.00
2023-04-18T06:24:45.640Z,551.00
2023-04-18T06:25:45.615Z,554.00
2023-04-18T06:26:45.663Z,635.00
2023-04-18T06:27:45.679Z,629.00
2023-04-18T06:28:45.706Z,582.00
2023-04-18T06:29:45.701Z,569.00
2023-04-18T06:30:45.732Z,570.00
2023-04-18T06:31:45.836Z,568.00
2023-04-18T06:32:45.888Z,557.00
2023-04-18T06:33:45.905Z,550.00
2023-04-18T06:34:45.988Z,547.00
2023-04-18T06:35:45.933Z,543.00
2023-04-18T06:36:46.013Z,542.00
2023-04-18T06:37:46.022Z,557.00
2023-04-18T06:38:46.554Z,567.00
2023-04-18T06:39:46.097Z,548.00
2023-04-18T06:40:46.541Z,540.00
2023-04-18T06:41:47.136Z,536.00
2023-04-18T06:42:46.221Z,545.00
2023-04-18T06:44:01.627Z,545.00
2023-04-18T06:44:47.275Z,545.00
2023-04-18T06:45:46.571Z,546.00
2023-04-18T06:46:46.246Z,554.00
2023-04-18T06:47:46.294Z,1333.00
2023-04-18T06:48:46.258Z,1642.00
2023-04-18T06:49:46.245Z,849.00
2023-04-18T06:50:46.514Z,652.00
2023-04-18T06:51:46.193Z,626.00
2023-04-18T06:52:46.207Z,602.00
2023-04-18T06:53:46.167Z,584.00
2023-04-18T06:54:46.193Z,575.00
2023-04-18T06:55:46.167Z,566.00
2023-04-18T06:56:46.198Z,557.00
2023-04-18T06:57:46.250Z,547.00
2023-04-18T06:58:46.290Z,546.00
2023-04-18T06:59:46.350Z,542.00
2023-04-18T07:00:46.552Z,547.00
2023-04-18T07:01:46.467Z,545.00
2023-04-18T07:02:46.788Z,542.00
2023-04-18T07:03:46.611Z,543.00
2023-04-18T07:04:46.794Z,540.00
2023-04-18T07:05:47.032Z,541.00
2023-04-18T07:06:46.619Z,544.00
2023-04-18T07:07:46.710Z,540.00
2023-04-18T07:08:46.661Z,531.00
2023-04-18T07:09:46.715Z,532.00
2023-04-18T07:10:46.763Z,532.00
2023-04-18T07:11:46.848Z,533.00
2023-04-18T07:12:46.841Z,537.00
2023-04-18T07:13:46.871Z,541.00
2023-04-18T07:14:46.933Z,541.00
2023-04-18T07:15:46.971Z,532.00
2023-04-18T07:16:47.037Z,724.00
2023-04-18T07:17:47.228Z,611.00
2023-04-18T07:18:47.057Z,572.00
2023-04-18T07:19:47.106Z,554.00
2023-04-18T07:20:47.195Z,549.00
2023-04-18T07:21:47.185Z,543.00
2023-04-18T07:22:47.211Z,539.00
2023-04-18T07:23:47.258Z,536.00
2023-04-18T07:24:47.247Z,534.00
2023-04-18T07:25:47.302Z,537.00
2023-04-18T07:26:47.348Z,532.00
2023-04-18T07:27:47.381Z,540.00
2023-04-18T07:28:47.380Z,540.00
2023-04-18T07:29:47.460Z,542.00
2023-04-18T07:30:47.468Z,543.00
2023-04-18T07:31:47.485Z,544.00
2023-04-18T07:32:48.554Z,540.00
2023-04-18T07:33:48.114Z,543.00
2023-04-18T07:34:47.515Z,543.00
2023-04-18T07:35:47.550Z,558.00
2023-04-18T07:36:47.652Z,557.00
2023-04-18T07:37:47.645Z,564.00
2023-04-18T07:38:48.061Z,576.00
2023-04-18T07:39:47.680Z,586.00
2023-04-18T07:40:47.631Z,580.00
2023-04-18T07:41:47.658Z,593.00
2023-04-18T07:42:47.670Z,595.00
2023-04-18T07:43:47.710Z,605.00
2023-04-18T07:44:47.715Z,606.00
2023-04-18T07:45:47.813Z,615.00
2023-04-18T07:46:47.817Z,620.00
2023-04-18T07:47:47.816Z,639.00
2023-04-18T07:48:47.739Z,635.00
2023-04-18T07:49:47.752Z,645.00
2023-04-18T07:50:48.048Z,658.00
2023-04-18T07:51:47.785Z,671.00
2023-04-18T07:52:47.925Z,686.00
2023-04-18T07:53:47.825Z,700.00
2023-04-18T07:54:47.810Z,727.00
2023-04-18T07:55:48.614Z,770.00
2023-04-18T07:56:47.832Z,734.00
2023-04-18T07:57:47.899Z,765.00
2023-04-18T07:58:47.850Z,755.00
2023-04-18T07:59:48.040Z,754.00
2023-04-18T08:00:48.164Z,758.00
2023-04-18T08:01:47.884Z,774.00
2023-04-18T08:02:47.932Z,778.00
2023-04-18T08:03:48.036Z,780.00
2023-04-18T08:04:48.008Z,786.00
2023-04-18T08:05:47.910Z,813.00
2023-04-18T08:06:47.907Z,831.00
2023-04-18T08:07:47.942Z,839.00
2023-04-18T08:08:47.915Z,840.00
2023-04-18T08:09:47.983Z,848.00
2023-04-18T08:10:47.984Z,871.00
2023-04-18T08:11:47.913Z,873.00
2023-04-18T08:12:47.890Z,891.00
2023-04-18T08:13:47.906Z,918.00
2023-04-18T08:14:47.958Z,928.00
2023-04-18T08:15:48.028Z,941.00
2023-04-18T08:16:48.163Z,945.00
2023-04-18T08:17:48.088Z,968.00
2023-04-18T08:18:48.170Z,978.00
2023-04-18T08:19:48.185Z,987.00
2023-04-18T08:20:48.098Z,1010.00
2023-04-18T08:21:48.142Z,1021.00
2023-04-18T08:23:05.186Z,1148.00
2023-04-18T08:23:49.174Z,1119.00
2023-04-18T08:25:03.232Z,676.00
2023-04-18T08:25:49.567Z,600.00
2023-04-18T08:26:48.170Z,561.00
2023-04-18T08:27:48.113Z,510.00
2023-04-18T08:28:48.117Z,477.00
2023-04-18T08:29:48.160Z,474.00
2023-04-18T08:30:48.622Z,513.00
2023-04-18T08:31:49.139Z,528.00
2023-04-18T08:32:48.145Z,539.00
2023-04-18T08:33:48.081Z,542.00
2023-04-18T08:34:48.556Z,570.00
2023-04-18T08:35:48.111Z,490.00
2023-04-18T08:36:48.080Z,512.00
2023-04-18T08:37:48.133Z,601.00
2023-04-18T08:38:48.117Z,599.00
2023-04-18T08:39:48.129Z,600.00
2023-04-18T08:40:48.728Z,599.00
2023-04-18T08:41:48.552Z,596.00
2023-04-18T08:42:48.232Z,593.00
2023-04-18T08:43:48.279Z,592.00
2023-04-18T08:44:48.288Z,569.00
2023-04-18T08:45:48.411Z,582.00
2023-04-18T08:46:48.571Z,578.00
2023-04-18T08:47:48.501Z,586.00
2023-04-18T08:48:48.630Z,582.00
2023-04-18T08:49:48.516Z,589.00
2023-04-18T08:50:48.529Z,591.00
2023-04-18T08:51:48.569Z,588.00
2023-04-18T08:52:48.567Z,593.00
2023-04-18T08:53:48.608Z,591.00
2023-04-18T08:54:49.131Z,591.00
2023-04-18T08:55:48.567Z,594.00
2023-04-18T08:56:49.065Z,595.00
2023-04-18T08:57:48.565Z,602.00
2023-04-18T08:58:48.574Z,605.00
2023-04-18T08:59:50.847Z,609.00
2023-04-18T09:00:49.080Z,614.00
2023-04-18T09:01:48.717Z,619.00
2023-04-18T09:02:48.794Z,617.00
2023-04-18T09:03:48.710Z,627.00
2023-04-18T09:04:48.699Z,627.00
2023-04-18T09:05:48.710Z,629.00
2023-04-18T09:06:48.699Z,631.00
2023-04-18T09:07:48.898Z,632.00
2023-04-18T09:08:48.763Z,638.00
2023-04-18T09:09:48.738Z,639.00
2023-04-18T09:10:48.737Z,641.00
2023-04-18T09:11:48.747Z,641.00
2023-04-18T09:12:48.729Z,647.00
2023-04-18T09:13:48.820Z,648.00
2023-04-18T09:14:48.723Z,649.00
2023-04-18T09:15:48.798Z,654.00
2023-04-18T09:16:48.862Z,657.00
2023-04-18T09:17:48.892Z,655.00
2023-04-18T09:18:48.939Z,656.00
2023-04-18T09:19:48.988Z,660.00
2023-04-18T09:20:49.645Z,657.00
2023-04-18T09:21:49.156Z,656.00
2023-04-18T09:22:48.993Z,660.00
2023-04-18T09:23:48.949Z,657.00
2023-04-18T09:24:48.951Z,655.00
2023-04-18T09:25:48.960Z,657.00
2023-04-18T09:26:48.918Z,654.00
2023-04-18T09:27:48.931Z,655.00
2023-04-18T09:28:48.956Z,654.00
2023-04-18T09:29:48.937Z,652.00
2023-04-18T09:30:49.005Z,657.00
2023-04-18T09:31:48.969Z,650.00
2023-04-18T09:32:49.024Z,663.00
2023-04-18T09:33:48.994Z,662.00
2023-04-18T09:34:48.999Z,620.00
2023-04-18T09:35:49.212Z,487.00
2023-04-18T09:36:49.166Z,400.00
2023-04-18T09:37:49.067Z,400.00
2023-04-18T09:38:49.164Z,452.00
2023-04-18T09:39:49.208Z,514.00
2023-04-18T09:40:49.225Z,511.00
2023-04-18T09:41:49.259Z,530.00
2023-04-18T09:42:49.276Z,539.00
2023-04-18T09:43:49.269Z,548.00
2023-04-18T09:44:49.365Z,537.00
2023-04-18T09:45:49.680Z,567.00
2023-04-18T09:46:49.432Z,601.00
2023-04-18T09:47:49.511Z,601.00
2023-04-18T09:48:50.510Z,581.00
2023-04-18T09:49:49.537Z,608.00
2023-04-18T09:50:49.582Z,582.00
2023-04-18T09:51:50.083Z,474.00
2023-04-18T09:52:49.686Z,496.00
2023-04-18T09:53:49.730Z,550.00
2023-04-18T09:54:49.777Z,588.00
2023-04-18T09:55:49.920Z,587.00
2023-04-18T09:56:49.916Z,593.00
2023-04-18T09:57:49.962Z,610.00
2023-04-18T09:58:50.029Z,649.00
2023-04-18T09:59:50.048Z,658.00
2023-04-18T10:00:50.277Z,658.00
2023-04-18T10:01:50.228Z,678.00
2023-04-18T10:02:50.374Z,704.00
2023-04-18T10:03:50.303Z,740.00
2023-04-18T10:04:50.329Z,766.00
2023-04-18T10:05:50.358Z,772.00
2023-04-18T10:06:50.317Z,737.00
2023-04-18T10:07:50.401Z,774.00
2023-04-18T10:08:50.363Z,790.00
2023-04-18T10:09:51.109Z,785.00
2023-04-18T10:10:50.472Z,799.00
2023-04-18T10:11:52.110Z,845.00
2023-04-18T10:12:50.619Z,865.00
2023-04-18T10:13:50.581Z,858.00
2023-04-18T10:14:50.644Z,881.00
2023-04-18T10:15:50.669Z,872.00
2023-04-18T10:16:50.732Z,858.00
2023-04-18T10:18:03.594Z,708.00
2023-04-18T10:18:51.682Z,711.00
2023-04-18T10:19:50.642Z,724.00
2023-04-18T10:20:50.648Z,750.00
2023-04-18T10:21:50.710Z,788.00
2023-04-18T10:22:50.614Z,849.00
2023-04-18T10:23:50.635Z,842.00
2023-04-18T10:24:50.609Z,872.00
2023-04-18T10:25:50.627Z,873.00
2023-04-18T10:26:50.628Z,814.00
2023-04-18T10:27:50.574Z,806.00
2023-04-18T10:28:50.609Z,797.00
2023-04-18T10:29:50.722Z,739.00
2023-04-18T10:30:50.621Z,740.00
2023-04-18T10:31:51.240Z,803.00
2023-04-18T10:32:50.905Z,871.00
2023-04-18T10:34:03.096Z,916.00
2023-04-18T10:34:51.801Z,917.00
2023-04-18T10:35:50.782Z,923.00
2023-04-18T10:36:50.837Z,940.00
2023-04-18T10:37:50.769Z,966.00
2023-04-18T10:38:50.778Z,939.00
2023-04-18T10:39:50.735Z,819.00
2023-04-18T10:40:50.761Z,861.00
2023-04-18T10:41:51.270Z,871.00
2023-04-18T10:42:50.741Z,910.00
2023-04-18T10:43:50.715Z,931.00
2023-04-18T10:44:50.702Z,949.00
2023-04-18T10:45:50.697Z,964.00
2023-04-18T10:46:50.773Z,961.00
2023-04-18T10:47:50.970Z,987.00
2023-04-18T10:48:50.849Z,979.00
2023-04-18T10:49:50.820Z,1010.00
2023-04-18T10:50:50.842Z,1003.00
2023-04-18T10:51:50.873Z,990.00
2023-04-18T10:52:50.887Z,998.00
2023-04-18T10:53:51.001Z,1024.00
2023-04-18T10:54:50.880Z,1052.00
2023-04-18T10:55:50.964Z,1059.00
2023-04-18T10:56:50.932Z,1067.00
2023-04-18T10:57:51.001Z,1107.00
2023-04-18T10:58:51.010Z,1146.00
2023-04-18T10:59:51.033Z,1158.00
2023-04-18T11:00:51.066Z,1178.00
2023-04-18T11:01:51.046Z,1196.00
2023-04-18T11:02:51.197Z,1194.00
2023-04-18T11:03:51.114Z,1191.00
2023-04-18T11:04:51.086Z,1202.00
2023-04-18T11:05:51.052Z,1179.00
2023-04-18T11:06:51.274Z,1198.00
2023-04-18T11:07:51.089Z,1203.00
2023-04-18T11:08:51.653Z,1212.00
2023-04-18T11:09:51.080Z,1216.00
2023-04-18T11:10:51.108Z,1237.00
2023-04-18T11:11:51.117Z,1239.00
2023-04-18T11:12:51.168Z,1230.00
2023-04-18T11:13:51.121Z,1265.00
2023-04-18T11:14:51.126Z,1243.00
2023-04-18T11:15:51.123Z,1227.00
2023-04-18T11:16:51.266Z,1234.00
2023-04-18T11:17:51.185Z,1228.00
2023-04-18T11:18:51.154Z,1232.00
2023-04-18T11:19:51.184Z,1237.00
2023-04-18T11:20:51.190Z,1246.00
2023-04-18T11:21:51.672Z,1245.00
2023-04-18T11:22:51.191Z,1241.00
2023-04-18T11:23:51.168Z,1262.00
2023-04-18T11:24:51.173Z,1248.00
2023-04-18T11:25:51.169Z,1254.00
2023-04-18T11:26:51.652Z,1263.00
2023-04-18T11:27:51.187Z,1264.00
2023-04-18T11:28:51.188Z,1263.00
2023-04-18T11:29:52.137Z,1281.00
2023-04-18T11:30:51.234Z,1279.00
2023-04-18T11:31:51.251Z,1271.00
2023-04-18T11:32:51.258Z,1273.00
2023-04-18T11:33:51.214Z,1274.00
2023-04-18T11:34:51.234Z,1276.00
2023-04-18T11:35:51.242Z,1283.00
2023-04-18T11:36:51.294Z,1286.00
2023-04-18T11:37:51.347Z,1299.00
2023-04-18T11:38:51.304Z,1297.00
2023-04-18T11:39:51.328Z,1284.00
2023-04-18T11:40:51.457Z,1300.00
2023-04-18T11:41:51.391Z,1281.00
2023-04-18T11:42:51.403Z,1288.00
2023-04-18T11:43:51.464Z,1284.00
2023-04-18T11:44:51.440Z,1283.00
2023-04-18T11:45:51.505Z,1290.00
2023-04-18T11:46:51.515Z,1288.00
2023-04-18T11:47:51.573Z,1296.00
2023-04-18T11:48:51.625Z,1279.00
2023-04-18T11:49:51.670Z,1284.00
2023-04-18T11:50:51.609Z,1283.00
2023-04-18T11:51:51.643Z,1272.00
2023-04-18T11:52:51.669Z,1277.00
2023-04-18T11:53:51.763Z,1278.00
2023-04-18T11:54:51.735Z,1278.00
2023-04-18T11:55:51.784Z,1273.00
2023-04-18T11:56:51.842Z,1281.00
2023-04-18T11:57:51.843Z,1273.00
2023-04-18T11:58:51.854Z,1278.00
2023-04-18T11:59:51.838Z,1273.00
2023-04-18T12:00:51.884Z,1271.00
2023-04-18T12:01:53.114Z,1265.00
2023-04-18T12:02:52.054Z,1276.00
2023-04-18T12:03:52.148Z,1270.00
2023-04-18T12:04:52.187Z,1254.00
2023-04-18T12:05:52.116Z,1270.00
2023-04-18T12:06:52.095Z,1267.00
2023-04-18T12:07:52.046Z,1258.00
2023-04-18T12:08:53.978Z,1252.00
2023-04-18T12:09:52.169Z,1259.00
2023-04-18T12:10:52.139Z,1259.00
2023-04-18T12:11:52.207Z,1249.00
2023-04-18T12:12:52.251Z,1259.00
2023-04-18T12:13:52.276Z,1251.00
2023-04-18T12:14:52.252Z,1238.00
2023-04-18T12:15:52.366Z,1250.00
2023-04-18T12:16:52.311Z,1241.00
2023-04-18T12:17:52.367Z,1251.00
2023-04-18T12:18:52.376Z,1236.00
2023-04-18T12:19:52.406Z,1235.00
2023-04-18T12:20:52.511Z,1229.00
2023-04-18T12:21:52.423Z,1234.00
2023-04-18T12:22:52.483Z,1241.00
2023-04-18T12:23:52.482Z,1239.00
2023-04-18T12:24:52.559Z,1240.00
2023-04-18T12:25:52.575Z,1225.00